Latest Weather Observations for Point Stuart

IDD60901

Issued at 10:01 am CST Saturday 28 February 2015 (issued every 10 minutes, with the page automatically refreshed every 10 minutes)

About weather observations | Map of Darwin area stations | Latest observations for Darwin area | Other Formats
Station Details ID: 014254 Name: POINT STUART Lat: -12.24 Lon: 131.88 Height: 1.0 m
Data from the previous 72 hours. | See also: Recent months for locations in Northern Territory
Date/Time
CST
Tmp

°C
App
Tmp
°C
Dew
Point
°C
Rel
Hum
%
Delta-T

°C
Wind Press
QNH
hPa
Press
MSL
hPa
Rain
since
9 am
mm
Dir
 
Spd
km/h
Gust
km/h
Spd
kts
Gust
kts
28/10:00am 28.7 34.0 25.9 85 2.0 SW 9 11 5 6 1007.6 - 0.0
28/09:30am 27.5 32.7 25.7 90 1.3 SW 9 11 5 6 1007.5 - 0.0
28/09:00am 26.9 32.0 26.2 96 0.5 SW 11 15 6 8 1007.4 1007.4 4.4
28/08:30am 26.2 31.0 26.2 100 0.0 WSW 13 17 7 9 1007.2 - 4.4
28/08:00am 25.7 30.5 25.7 100 0.0 WSW 11 13 6 7 1006.9 - 4.4
28/07:30am 25.4 30.0 25.4 100 0.0 WSW 11 13 6 7 1006.5 - 4.4
28/07:00am 25.2 30.5 25.2 100 0.0 SSW 7 9 4 5 1006.6 - 4.4
28/06:30am 25.3 31.2 25.3 100 0.0 W 4 7 2 4 1006.4 - 4.4
28/06:00am 25.3 29.9 25.3 100 0.0 SW 11 15 6 8 1006.4 1006.4 4.4
28/05:30am 25.5 29.8 25.5 100 0.0 SW 13 17 7 9 1006.2 - 4.4
28/05:00am 25.9 30.5 25.9 100 0.0 SW 13 15 7 8 1006.0 - 4.4
28/04:30am 26.9 31.2 26.7 99 0.1 W 17 24 9 13 1006.0 - 4.4
28/04:00am 26.8 29.9 26.8 100 0.0 WNW 24 32 13 17 1005.7 - 4.2
28/03:30am 27.4 30.5 26.3 94 0.8 WNW 22 30 12 16 1006.2 - 2.6
28/03:00am 27.2 30.1 26.0 93 0.9 WNW 22 30 12 16 1006.3 1006.3 2.6
28/02:30am 26.9 29.5 24.9 89 1.4 WNW 20 28 11 15 1006.6 - 2.6
28/02:00am 26.6 30.2 25.6 94 0.7 WNW 17 24 9 13 1006.7 - 2.6
28/01:30am 26.7 28.2 26.2 97 0.4 WNW 30 37 16 20 1006.6 - 2.6
28/01:00am 27.4 30.0 27.2 99 0.1 NW 28 35 15 19 1007.1 - 2.6
28/12:30am 27.0 30.2 27.0 100 0.0 NW 24 30 13 16 1007.2 - 2.6
28/12:00am 25.7 32.2 25.7 100 0.0 WNW 2 11 1 6 1007.6 1007.6 2.6
 
Date/Time
CST
Tmp

°C
App
Tmp
°C
Dew
Point
°C
Rel
Hum
%
Delta-T

°C
Wind Press
QNH
hPa
Press
MSL
hPa
Rain
since
9 am
mm
Dir
 
Spd
km/h
Gust
km/h
Spd
kts
Gust
kts
27/11:30pm 25.7 31.5 25.7 100 0.0 W 6 7 3 4 1007.8 - 2.6
27/11:00pm 25.7 31.8 25.7 100 0.0 SSE 4 6 2 3 1008.6 - 2.6
27/10:30pm 25.8 31.4 25.8 100 0.0 E 7 11 4 6 1009.3 - 2.6
27/10:00pm 25.7 31.3 25.7 100 0.0 NE 7 13 4 7 1009.1 - 2.6
27/09:30pm 25.4 30.3 25.2 99 0.1 N 9 15 5 8 1008.7 - 2.4
27/09:00pm 25.8 29.8 25.6 99 0.1 NNE 15 22 8 12 1008.4 1008.4 1.8
27/08:30pm 26.6 32.3 26.4 99 0.1 NNE 9 15 5 8 1008.4 - 1.4
27/08:00pm 26.8 32.5 26.5 98 0.2 NNW 9 17 5 9 1007.8 - 1.2
27/07:30pm 26.5 31.3 26.2 98 0.2 NNW 13 20 7 11 1006.7 - 1.2
27/07:00pm 26.6 30.4 25.9 96 0.5 NNW 17 30 9 16 1006.8 - 1.0
27/06:30pm 26.6 31.1 26.4 99 0.1 WNW 15 19 8 10 1005.7 - 1.0
27/06:00pm 26.4 31.3 25.9 97 0.4 SW 11 13 6 7 1005.1 1005.1 1.0
27/05:30pm 26.7 29.9 25.5 93 0.8 SW 19 24 10 13 1004.7 - 1.0
27/05:00pm 27.5 32.9 26.6 95 0.6 WSW 11 13 6 7 1004.9 - 0.8
27/04:30pm 28.4 32.7 26.6 90 1.3 WNW 17 22 9 12 1005.1 - 0.0
27/04:00pm 28.6 31.0 26.4 88 1.6 NW 26 35 14 19 1004.6 - 0.0
27/03:30pm 29.0 31.8 25.8 83 2.3 NW 22 30 12 16 1004.0 - 0.0
27/03:00pm 29.1 32.1 25.5 81 2.5 WNW 20 28 11 15 1004.5 1004.5 0.0
27/02:30pm 29.7 32.4 26.3 82 2.4 WNW 24 32 13 17 1005.0 - 0.0
27/02:00pm 30.5 33.5 26.7 80 2.7 NW 24 33 13 18 1005.0 - 0.0
27/01:30pm 31.9 36.5 27.1 76 3.5 NW 17 24 9 13 1005.7 - 0.0
27/01:00pm 31.7 36.9 28.0 81 2.7 NW 17 24 9 13 1006.2 - 0.0
27/12:30pm 31.4 36.3 27.5 80 2.8 NW 17 24 9 13 1006.7 - 0.0
27/12:00pm 31.8 37.3 28.3 82 2.6 NW 17 22 9 12 1007.3 1007.3 0.0
27/11:30am 31.5 36.5 27.6 80 2.8 NW 17 20 9 11 1007.6 - 0.0
27/11:00am 31.0 36.1 27.3 81 2.7 WNW 15 20 8 11 1007.8 - 0.0
27/10:30am 30.4 35.0 26.6 80 2.7 WNW 15 24 8 13 1008.0 - 0.0
27/10:00am 30.3 36.0 27.1 83 2.3 NW 11 17 6 9 1008.1 - 0.0
27/09:30am 30.2 34.8 25.9 78 3.1 W 13 19 7 10 1008.0 - 0.0
27/09:00am 29.6 35.9 27.4 88 1.6 WSW 9 15 5 8 1007.7 1007.7 10.6
27/08:30am 28.4 34.8 27.0 92 1.0 S 7 9 4 5 1007.5 - 10.6
27/08:00am 28.0 35.3 28.0 100 0.0 SE 6 9 3 5 1007.2 - 10.6
27/07:30am 26.8 33.1 26.8 100 0.0 ESE 7 11 4 6 1006.9 - 10.6
27/07:00am 26.1 31.9 26.1 100 0.0 E 7 9 4 5 1006.5 - 10.6
27/06:30am 26.2 33.4 26.2 100 0.0 CALM 0 2 0 1 1006.3 - 10.6
27/06:00am 26.3 32.3 26.3 100 0.0 ESE 7 9 4 5 1006.2 1006.2 10.6
27/05:30am 26.5 32.2 26.5 100 0.0 S 9 11 5 6 1006.0 - 10.6
27/05:00am 26.3 32.3 26.3 100 0.0 SSW 7 9 4 5 1005.7 - 10.6
27/04:30am 26.1 31.9 26.1 100 0.0 SW 7 11 4 6 1005.4 - 10.6
27/04:00am 26.5 31.8 26.5 100 0.0 W 11 15 6 8 1005.2 - 10.6
27/03:30am 26.4 31.2 26.2 99 0.1 WSW 13 17 7 9 1005.1 - 10.6
27/03:00am 26.8 31.6 26.8 100 0.0 WSW 15 20 8 11 1005.5 1005.5 10.6
27/02:30am 27.0 30.6 27.0 100 0.0 W 22 28 12 15 1005.5 - 10.6
27/02:00am 26.9 30.8 26.9 100 0.0 W 20 24 11 13 1006.0 - 10.6
27/01:30am 26.2 28.3 25.3 95 0.6 W 24 30 13 16 1006.4 - 10.2
27/01:00am 27.1 31.7 27.1 100 0.0 W 17 24 9 13 1007.2 - 9.6
27/12:30am 27.0 31.9 27.0 100 0.0 W 15 20 8 11 1007.8 - 8.0
27/12:00am 27.1 32.5 27.1 100 0.0 WNW 13 17 7 9 1008.4 1008.4 6.0
 
Date/Time
CST
Tmp

°C
App
Tmp
°C
Dew
Point
°C
Rel
Hum
%
Delta-T

°C
Wind Press
QNH
hPa
Press
MSL
hPa
Rain
since
9 am
mm
Dir
 
Spd
km/h
Gust
km/h
Spd
kts
Gust
kts
26/11:30pm 27.0 31.0 26.8 99 0.1 WNW 19 24 10 13 1008.2 - 3.6
26/11:00pm 27.3 32.3 27.1 99 0.1 NW 15 22 8 12 1008.9 - 1.8
26/10:30pm 27.4 33.3 26.7 96 0.5 NNW 9 13 5 7 1008.7 - 1.0
26/10:00pm 27.8 32.8 26.6 93 0.9 NNW 13 20 7 11 1008.8 - 0.0
26/09:30pm 28.4 32.1 26.6 90 1.3 NW 20 28 11 15 1008.0 - 0.0
26/09:00pm 28.1 31.0 26.5 91 1.1 NW 24 35 13 19 1006.6 1006.6 0.0
26/08:30pm 28.2 32.6 26.2 89 1.4 N 15 32 8 17 1006.1 - 0.0
26/08:00pm 29.1 31.7 26.7 87 1.7 NW 26 32 14 17 1005.6 - 0.0
26/07:30pm 29.3 33.5 27.3 89 1.4 NW 20 28 11 15 1005.8 - 0.0
26/07:00pm 29.2 34.0 27.4 90 1.3 NW 17 20 9 11 1005.4 - 0.0
26/06:30pm 29.4 33.9 27.0 87 1.7 WNW 17 20 9 11 1005.4 - 0.0
26/06:00pm 29.7 34.2 26.9 85 2.0 NW 17 22 9 12 1005.4 1005.4 0.0
26/05:30pm 29.9 34.6 27.3 86 1.9 NW 17 24 9 13 1005.0 - 0.0
26/05:00pm 30.2 34.5 27.2 84 2.2 NW 19 24 10 13 1004.7 - 0.0
26/04:30pm 30.7 35.2 27.5 83 2.3 NW 19 24 10 13 1004.7 - 0.0
26/04:00pm 31.4 35.8 28.2 83 2.3 NW 22 28 12 15 1004.6 - 0.0
26/03:30pm 31.0 35.2 27.3 81 2.7 NW 20 26 11 14 1004.7 - 0.0
26/03:00pm 31.0 35.4 27.6 82 2.5 NW 20 28 11 15 1004.9 1004.9 0.0
26/02:30pm 30.7 34.6 26.6 79 2.9 NW 19 24 10 13 1005.0 - 0.0
26/02:00pm 31.3 36.4 27.2 79 3.0 NW 15 20 8 11 1005.3 - 0.0
26/01:30pm 31.0 36.0 26.5 77 3.2 NW 13 17 7 9 1006.1 - 0.0
26/01:00pm 31.0 36.3 27.6 82 2.5 WNW 15 20 8 11 1006.8 - 0.0
26/12:30pm 30.6 35.8 27.4 83 2.3 WNW 15 19 8 10 1007.3 - 0.0
26/12:00pm 30.2 34.5 26.6 81 2.6 WNW 17 20 9 11 1007.8 1007.8 0.0
26/11:30am 30.1 34.1 26.7 82 2.4 NW 19 22 10 12 1007.9 - 0.0
26/11:00am 29.9 35.1 26.3 81 2.6 WSW 11 17 6 9 1008.3 - 0.0
26/10:30am 29.6 35.1 26.8 85 2.0 WSW 11 17 6 9 1008.6 - 0.0
26/10:00am 28.4 34.3 26.8 91 1.1 S 9 11 5 6 1008.8 - 0.0
26/09:30am 27.7 33.4 27.0 96 0.5 S 11 15 6 8 1009.0 - 0.0
26/09:00am 27.0 33.4 27.0 100 0.0 SSW 7 9 4 5 1008.8 1008.8 0.0
26/08:30am 26.5 32.6 26.5 100 0.0 SSW 7 9 4 5 1008.6 - 0.0
26/08:00am 26.0 31.0 26.0 100 0.0 SSW 11 17 6 9 1008.3 - 0.0
26/07:30am 25.5 30.6 25.5 100 0.0 SSW 9 11 5 6 1007.7 - 0.0
26/07:00am 24.9 29.6 24.9 100 0.0 WSW 9 11 5 6 1007.4 - 0.0
26/06:30am 24.9 29.6 24.9 100 0.0 WSW 9 11 5 6 1007.4 - 0.0
26/06:00am 25.0 29.7 25.0 100 0.0 WSW 9 11 5 6 1007.3 1007.3 0.0
26/05:30am 24.9 29.6 24.9 100 0.0 WSW 9 11 5 6 1006.9 - 0.0
26/05:00am 25.0 30.1 25.0 100 0.0 WSW 7 9 4 5 1006.7 - 0.0
26/04:30am 25.1 29.9 25.1 100 0.0 W 9 11 5 6 1006.5 - 0.0
26/04:00am 25.0 29.7 25.0 100 0.0 W 9 11 5 6 1006.5 - 0.0
26/03:30am 25.0 30.1 25.0 100 0.0 WSW 7 9 4 5 1006.6 - 0.0
26/03:00am 25.1 30.3 25.1 100 0.0 WSW 7 9 4 5 1007.0 1007.0 0.0
26/02:30am 25.2 30.1 25.2 100 0.0 WSW 9 9 5 5 1007.0 - 0.0
26/02:00am 25.3 30.6 25.3 100 0.0 SW 7 9 4 5 1007.3 - 0.0
26/01:30am 25.4 30.4 25.4 100 0.0 SSW 9 11 5 6 1007.7 - 0.0
26/01:00am 25.5 30.9 25.5 100 0.0 SW 7 11 4 6 1007.7 - 0.0
26/12:30am 25.5 30.9 25.5 100 0.0 SSW 7 11 4 6 1008.0 - 0.0
26/12:00am 25.6 30.3 25.6 100 0.0 WSW 11 13 6 7 1008.4 1008.4 0.0
 
Date/Time
CST
Tmp

°C
App
Tmp
°C
Dew
Point
°C
Rel
Hum
%
Delta-T

°C
Wind Press
QNH
hPa
Press
MSL
hPa
Rain
since
9 am
mm
Dir
 
Spd
km/h
Gust
km/h
Spd
kts
Gust
kts
25/11:30pm 25.7 30.9 25.7 100 0.0 WSW 9 13 5 7 1008.8 - 0.0
25/11:00pm 25.8 30.2 25.6 99 0.1 W 13 17 7 9 1008.7 - 0.0
25/10:30pm 26.1 30.2 25.8 98 0.2 W 15 19 8 10 1008.0 - 0.0
25/10:00pm 26.1 30.1 25.6 97 0.4 WSW 15 19 8 10 1008.0 - 0.0
25/09:30pm 26.4 30.8 25.7 96 0.5 SW 13 17 7 9 1008.1 - 0.0
25/09:00pm 26.8 31.6 26.3 97 0.4 WSW 13 17 7 9 1007.7 1007.7 0.0
25/08:30pm 27.2 32.4 26.3 95 0.6 SW 11 15 6 8 1007.4 - 0.0
25/08:00pm 27.5 32.7 26.3 93 0.9 SW 11 13 6 7 1007.3 - 0.0
25/07:30pm 27.9 32.6 26.1 90 1.3 SSW 13 19 7 10 1007.4 - 0.0
25/07:00pm 28.3 32.7 26.3 89 1.4 WSW 15 19 8 10 1007.1 - 0.0
25/06:30pm 28.6 32.1 25.4 83 2.3 WSW 17 20 9 11 1006.7 - 0.0
25/06:00pm 29.2 32.9 25.8 82 2.4 W 17 20 9 11 1006.5 1006.5 0.0
25/05:30pm 29.7 33.3 26.1 81 2.6 W 19 24 10 13 1005.9 - 0.0
25/05:00pm 29.9 33.7 26.5 82 2.4 WNW 19 24 10 13 1005.4 - 0.0
25/04:30pm 30.8 35.1 27.2 81 2.6 NW 19 24 10 13 1005.3 - 0.0
25/04:00pm 31.3 35.9 27.6 81 2.7 NW 19 24 10 13 1005.5 - 0.0
25/03:30pm 31.0 36.1 27.8 83 2.3 WNW 17 22 9 12 1005.6 - 0.0
25/03:00pm 31.3 36.1 27.9 82 2.5 NW 19 24 10 13 1005.5 1005.5 0.0
25/02:30pm 31.4 36.8 27.7 81 2.7 NW 15 20 8 11 1006.1 - 0.0
25/02:00pm 31.7 38.0 28.4 83 2.4 NW 13 20 7 11 1006.6 - 0.0
25/01:30pm 31.7 36.9 28.0 81 2.7 WNW 17 24 9 13 1007.2 - 0.0
25/01:00pm 31.2 36.3 27.8 82 2.5 WNW 17 20 9 11 1008.1 - 0.0
25/12:30pm 30.8 37.1 27.4 82 2.5 W 9 13 5 7 1008.9 - 0.0
25/12:00pm 30.3 35.2 26.9 82 2.4 NW 15 19 8 10 1009.5 1009.5 0.0
25/11:30am 30.3 36.0 27.5 85 2.0 WNW 13 17 7 9 1009.8 - 0.0
25/11:00am 30.6 35.3 26.1 77 3.2 WSW 13 19 7 10 1009.7 - 0.0
25/10:30am 30.1 36.9 28.1 89 1.5 SW 9 15 5 8 1010.1 - 0.0

Latest Capital City Observations: Canberra | Sydney | Melbourne | Brisbane | Adelaide | Perth | Hobart | Darwin

Other Formats:

Comma delimited format used in spreadsheet applications
http://www.bom.gov.au/fwo/IDD60901/IDD60901.94127.axf

JavaScript Object Notation format (JSON) in row-major order
http://www.bom.gov.au/fwo/IDD60901/IDD60901.94127.json